sensor_id;sensor_type;location;lat;lon;timestamp;P1;durP1;ratioP1;P2;durP2;ratioP2
23676;SDS011;31493;49.058;12.190;2022-12-13T00:00:45;29.45;;;15.18;;
23676;SDS011;31493;49.058;12.190;2022-12-13T00:03:12;30.15;;;15.05;;
23676;SDS011;31493;49.058;12.190;2022-12-13T00:05:42;32.60;;;15.70;;
23676;SDS011;31493;49.058;12.190;2022-12-13T00:08:10;28.63;;;15.57;;
23676;SDS011;31493;49.058;12.190;2022-12-13T00:10:37;27.27;;;15.25;;
23676;SDS011;31493;49.058;12.190;2022-12-13T00:13:04;33.55;;;17.02;;
23676;SDS011;31493;49.058;12.190;2022-12-13T00:15:32;27.50;;;15.23;;
23676;SDS011;31493;49.058;12.190;2022-12-13T00:17:59;27.85;;;14.25;;
23676;SDS011;31493;49.058;12.190;2022-12-13T00:20:27;26.75;;;13.68;;
23676;SDS011;31493;49.058;12.190;2022-12-13T00:22:54;28.70;;;15.13;;
23676;SDS011;31493;49.058;12.190;2022-12-13T00:25:22;30.88;;;14.88;;
23676;SDS011;31493;49.058;12.190;2022-12-13T00:27:49;31.50;;;15.23;;
23676;SDS011;31493;49.058;12.190;2022-12-13T00:30:16;31.13;;;14.75;;
23676;SDS011;31493;49.058;12.190;2022-12-13T00:32:44;28.60;;;14.00;;
23676;SDS011;31493;49.058;12.190;2022-12-13T00:35:11;27.80;;;14.60;;
23676;SDS011;31493;49.058;12.190;2022-12-13T00:37:38;29.23;;;13.15;;
23676;SDS011;31493;49.058;12.190;2022-12-13T00:40:05;21.33;;;12.18;;
23676;SDS011;31493;49.058;12.190;2022-12-13T00:42:33;16.13;;;8.60;;
23676;SDS011;31493;49.058;12.190;2022-12-13T00:45:00;24.13;;;11.40;;
23676;SDS011;31493;49.058;12.190;2022-12-13T00:47:27;24.08;;;11.70;;
23676;SDS011;31493;49.058;12.190;2022-12-13T00:49:56;25.42;;;12.07;;
23676;SDS011;31493;49.058;12.190;2022-12-13T00:52:23;21.08;;;10.68;;
23676;SDS011;31493;49.058;12.190;2022-12-13T00:54:50;24.83;;;11.50;;
23676;SDS011;31493;49.058;12.190;2022-12-13T00:57:17;23.85;;;11.77;;
23676;SDS011;31493;49.058;12.190;2022-12-13T00:59:44;23.10;;;11.43;;
23676;SDS011;31493;49.058;12.190;2022-12-13T01:02:11;27.42;;;13.63;;
23676;SDS011;31493;49.058;12.190;2022-12-13T01:04:38;30.05;;;14.65;;
23676;SDS011;31493;49.058;12.190;2022-12-13T01:07:07;33.50;;;15.25;;
23676;SDS011;31493;49.058;12.190;2022-12-13T01:09:34;28.30;;;13.52;;
23676;SDS011;31493;49.058;12.190;2022-12-13T01:12:03;29.15;;;14.35;;
23676;SDS011;31493;49.058;12.190;2022-12-13T01:14:33;28.42;;;14.23;;
23676;SDS011;31493;49.058;12.190;2022-12-13T01:17:00;30.10;;;15.48;;
23676;SDS011;31493;49.058;12.190;2022-12-13T01:19:28;31.95;;;14.85;;
23676;SDS011;31493;49.058;12.190;2022-12-13T01:21:55;29.05;;;15.13;;
23676;SDS011;31493;49.058;12.190;2022-12-13T01:24:24;28.17;;;14.20;;
23676;SDS011;31493;49.058;12.190;2022-12-13T01:29:19;19.15;;;9.18;;
23676;SDS011;31493;49.058;12.190;2022-12-13T01:31:46;28.20;;;13.57;;
23676;SDS011;31493;49.058;12.190;2022-12-13T01:34:15;27.60;;;12.82;;
23676;SDS011;31493;49.058;12.190;2022-12-13T01:36:45;24.52;;;12.98;;
23676;SDS011;31493;49.058;12.190;2022-12-13T01:39:13;25.67;;;12.85;;
23676;SDS011;31493;49.058;12.190;2022-12-13T01:41:46;25.75;;;12.65;;
23676;SDS011;31493;49.058;12.190;2022-12-13T01:47:19;22.20;;;11.77;;
23676;SDS011;31493;49.058;12.190;2022-12-13T01:49:50;27.02;;;12.30;;
23676;SDS011;31493;49.058;12.190;2022-12-13T01:52:20;26.50;;;12.95;;
23676;SDS011;31493;49.058;12.190;2022-12-13T01:54:50;26.17;;;12.85;;
23676;SDS011;31493;49.058;12.190;2022-12-13T01:57:22;27.10;;;13.23;;
23676;SDS011;31493;49.058;12.190;2022-12-13T01:59:50;23.70;;;12.15;;
23676;SDS011;31493;49.058;12.190;2022-12-13T02:02:20;23.73;;;11.45;;
23676;SDS011;31493;49.058;12.190;2022-12-13T02:04:49;25.00;;;11.43;;
23676;SDS011;31493;49.058;12.190;2022-12-13T02:07:22;24.92;;;12.05;;
23676;SDS011;31493;49.058;12.190;2022-12-13T02:09:54;28.33;;;11.88;;
23676;SDS011;31493;49.058;12.190;2022-12-13T02:12:25;22.23;;;10.80;;
23676;SDS011;31493;49.058;12.190;2022-12-13T02:14:54;22.90;;;11.23;;
23676;SDS011;31493;49.058;12.190;2022-12-13T02:17:25;18.45;;;8.82;;
23676;SDS011;31493;49.058;12.190;2022-12-13T02:23:21;31.30;;;14.60;;
23676;SDS011;31493;49.058;12.190;2022-12-13T02:29:13;35.30;;;16.65;;
23676;SDS011;31493;49.058;12.190;2022-12-13T02:32:03;35.13;;;17.05;;
23676;SDS011;31493;49.058;12.190;2022-12-13T02:34:35;39.20;;;18.27;;
23676;SDS011;31493;49.058;12.190;2022-12-13T02:37:06;32.45;;;17.15;;
23676;SDS011;31493;49.058;12.190;2022-12-13T02:39:40;33.58;;;17.00;;
23676;SDS011;31493;49.058;12.190;2022-12-13T02:42:14;31.98;;;16.50;;
23676;SDS011;31493;49.058;12.190;2022-12-13T02:44:49;25.98;;;13.43;;
23676;SDS011;31493;49.058;12.190;2022-12-13T02:47:23;32.53;;;14.88;;
23676;SDS011;31493;49.058;12.190;2022-12-13T02:49:53;27.67;;;12.85;;
23676;SDS011;31493;49.058;12.190;2022-12-13T02:52:24;28.55;;;12.95;;
23676;SDS011;31493;49.058;12.190;2022-12-13T02:54:53;29.65;;;13.73;;
23676;SDS011;31493;49.058;12.190;2022-12-13T02:57:27;23.97;;;12.57;;
23676;SDS011;31493;49.058;12.190;2022-12-13T02:59:56;28.25;;;13.98;;
23676;SDS011;31493;49.058;12.190;2022-12-13T03:02:29;32.38;;;14.98;;
23676;SDS011;31493;49.058;12.190;2022-12-13T03:05:08;31.73;;;15.02;;
23676;SDS011;31493;49.058;12.190;2022-12-13T03:08:04;34.80;;;15.98;;
23676;SDS011;31493;49.058;12.190;2022-12-13T03:10:43;32.58;;;14.70;;
23676;SDS011;31493;49.058;12.190;2022-12-13T03:13:22;34.13;;;16.38;;
23676;SDS011;31493;49.058;12.190;2022-12-13T03:16:05;31.10;;;15.07;;
23676;SDS011;31493;49.058;12.190;2022-12-13T03:18:38;30.42;;;15.70;;
23676;SDS011;31493;49.058;12.190;2022-12-13T03:21:08;28.67;;;14.80;;
23676;SDS011;31493;49.058;12.190;2022-12-13T03:23:35;27.95;;;14.02;;
23676;SDS011;31493;49.058;12.190;2022-12-13T03:26:04;35.83;;;16.98;;
23676;SDS011;31493;49.058;12.190;2022-12-13T03:28:34;36.50;;;17.45;;
23676;SDS011;31493;49.058;12.190;2022-12-13T03:31:02;37.03;;;17.80;;
23676;SDS011;31493;49.058;12.190;2022-12-13T03:33:29;37.72;;;17.65;;
23676;SDS011;31493;49.058;12.190;2022-12-13T03:35:58;40.70;;;19.30;;
23676;SDS011;31493;49.058;12.190;2022-12-13T03:38:26;34.42;;;16.00;;
23676;SDS011;31493;49.058;12.190;2022-12-13T03:40:55;32.35;;;15.05;;
23676;SDS011;31493;49.058;12.190;2022-12-13T03:43:24;27.50;;;13.63;;
23676;SDS011;31493;49.058;12.190;2022-12-13T03:45:52;27.95;;;13.55;;
23676;SDS011;31493;49.058;12.190;2022-12-13T03:48:20;29.15;;;14.02;;
23676;SDS011;31493;49.058;12.190;2022-12-13T03:50:48;30.40;;;13.95;;
23676;SDS011;31493;49.058;12.190;2022-12-13T03:53:17;25.52;;;12.05;;
23676;SDS011;31493;49.058;12.190;2022-12-13T03:58:11;22.33;;;10.35;;
23676;SDS011;31493;49.058;12.190;2022-12-13T04:00:38;27.50;;;11.27;;
23676;SDS011;31493;49.058;12.190;2022-12-13T04:03:06;24.73;;;12.00;;
23676;SDS011;31493;49.058;12.190;2022-12-13T04:05:33;25.50;;;12.43;;
23676;SDS011;31493;49.058;12.190;2022-12-13T04:08:00;27.92;;;13.50;;
23676;SDS011;31493;49.058;12.190;2022-12-13T04:10:29;26.75;;;13.55;;
23676;SDS011;31493;49.058;12.190;2022-12-13T04:12:56;28.88;;;13.85;;
23676;SDS011;31493;49.058;12.190;2022-12-13T04:15:40;30.95;;;14.10;;
23676;SDS011;31493;49.058;12.190;2022-12-13T04:18:13;30.17;;;14.90;;
23676;SDS011;31493;49.058;12.190;2022-12-13T04:20:41;29.67;;;13.68;;
23676;SDS011;31493;49.058;12.190;2022-12-13T04:23:09;24.80;;;12.07;;
23676;SDS011;31493;49.058;12.190;2022-12-13T04:25:37;19.88;;;10.10;;
23676;SDS011;31493;49.058;12.190;2022-12-13T04:28:05;28.42;;;12.30;;
23676;SDS011;31493;49.058;12.190;2022-12-13T04:30:33;24.70;;;12.10;;
23676;SDS011;31493;49.058;12.190;2022-12-13T04:33:00;22.63;;;9.90;;
23676;SDS011;31493;49.058;12.190;2022-12-13T04:35:28;31.23;;;12.63;;
23676;SDS011;31493;49.058;12.190;2022-12-13T04:37:56;35.22;;;18.52;;
23676;SDS011;31493;49.058;12.190;2022-12-13T04:40:23;28.55;;;13.48;;
23676;SDS011;31493;49.058;12.190;2022-12-13T04:42:51;25.83;;;12.75;;
23676;SDS011;31493;49.058;12.190;2022-12-13T04:45:19;32.50;;;14.68;;
23676;SDS011;31493;49.058;12.190;2022-12-13T04:47:47;38.97;;;18.48;;
23676;SDS011;31493;49.058;12.190;2022-12-13T04:50:14;38.05;;;17.67;;
23676;SDS011;31493;49.058;12.190;2022-12-13T04:52:41;40.20;;;18.90;;
23676;SDS011;31493;49.058;12.190;2022-12-13T04:55:09;28.88;;;13.13;;
23676;SDS011;31493;49.058;12.190;2022-12-13T04:57:36;25.88;;;12.57;;
23676;SDS011;31493;49.058;12.190;2022-12-13T05:00:06;33.80;;;16.65;;
23676;SDS011;31493;49.058;12.190;2022-12-13T05:02:37;32.05;;;15.30;;
23676;SDS011;31493;49.058;12.190;2022-12-13T05:05:06;28.38;;;13.43;;
23676;SDS011;31493;49.058;12.190;2022-12-13T05:10:01;24.65;;;12.27;;
23676;SDS011;31493;49.058;12.190;2022-12-13T05:12:28;25.35;;;11.80;;
23676;SDS011;31493;49.058;12.190;2022-12-13T05:14:55;27.17;;;11.80;;
23676;SDS011;31493;49.058;12.190;2022-12-13T05:17:24;24.67;;;12.00;;
23676;SDS011;31493;49.058;12.190;2022-12-13T05:19:51;23.25;;;11.65;;
23676;SDS011;31493;49.058;12.190;2022-12-13T05:22:18;23.13;;;11.50;;
23676;SDS011;31493;49.058;12.190;2022-12-13T05:24:45;26.67;;;12.13;;
23676;SDS011;31493;49.058;12.190;2022-12-13T05:27:12;25.85;;;11.90;;
23676;SDS011;31493;49.058;12.190;2022-12-13T05:29:39;23.55;;;11.70;;
23676;SDS011;31493;49.058;12.190;2022-12-13T05:32:06;24.17;;;10.30;;
23676;SDS011;31493;49.058;12.190;2022-12-13T05:34:34;22.23;;;11.13;;
23676;SDS011;31493;49.058;12.190;2022-12-13T05:37:01;26.40;;;11.82;;
23676;SDS011;31493;49.058;12.190;2022-12-13T05:39:28;24.45;;;12.65;;
23676;SDS011;31493;49.058;12.190;2022-12-13T05:41:56;25.02;;;11.50;;
23676;SDS011;31493;49.058;12.190;2022-12-13T05:44:25;36.65;;;16.33;;
23676;SDS011;31493;49.058;12.190;2022-12-13T05:46:52;28.63;;;14.23;;
23676;SDS011;31493;49.058;12.190;2022-12-13T05:49:19;25.92;;;12.57;;
23676;SDS011;31493;49.058;12.190;2022-12-13T05:51:47;27.30;;;12.88;;
23676;SDS011;31493;49.058;12.190;2022-12-13T05:54:14;22.83;;;11.68;;
23676;SDS011;31493;49.058;12.190;2022-12-13T05:56:41;28.10;;;12.65;;
23676;SDS011;31493;49.058;12.190;2022-12-13T05:59:08;25.20;;;12.32;;
23676;SDS011;31493;49.058;12.190;2022-12-13T06:01:35;25.73;;;12.70;;
23676;SDS011;31493;49.058;12.190;2022-12-13T06:04:02;28.70;;;12.63;;
23676;SDS011;31493;49.058;12.190;2022-12-13T06:06:29;25.52;;;12.80;;
23676;SDS011;31493;49.058;12.190;2022-12-13T06:08:58;26.67;;;12.40;;
23676;SDS011;31493;49.058;12.190;2022-12-13T06:11:25;25.90;;;12.25;;
23676;SDS011;31493;49.058;12.190;2022-12-13T06:13:52;22.50;;;11.63;;
23676;SDS011;31493;49.058;12.190;2022-12-13T06:16:20;29.70;;;12.52;;
23676;SDS011;31493;49.058;12.190;2022-12-13T06:18:47;31.23;;;13.82;;
23676;SDS011;31493;49.058;12.190;2022-12-13T06:21:14;28.40;;;14.00;;
23676;SDS011;31493;49.058;12.190;2022-12-13T06:23:41;30.80;;;15.63;;
23676;SDS011;31493;49.058;12.190;2022-12-13T06:26:09;34.05;;;18.02;;
23676;SDS011;31493;49.058;12.190;2022-12-13T06:28:36;30.00;;;15.18;;
23676;SDS011;31493;49.058;12.190;2022-12-13T06:31:03;28.20;;;14.63;;
23676;SDS011;31493;49.058;12.190;2022-12-13T06:33:31;22.38;;;11.48;;
23676;SDS011;31493;49.058;12.190;2022-12-13T06:36:01;27.27;;;13.65;;
23676;SDS011;31493;49.058;12.190;2022-12-13T06:38:29;23.73;;;11.85;;
23676;SDS011;31493;49.058;12.190;2022-12-13T06:41:04;24.77;;;13.23;;
23676;SDS011;31493;49.058;12.190;2022-12-13T06:43:34;23.73;;;12.18;;
23676;SDS011;31493;49.058;12.190;2022-12-13T06:46:01;24.95;;;12.90;;
23676;SDS011;31493;49.058;12.190;2022-12-13T06:48:29;24.02;;;12.85;;
23676;SDS011;31493;49.058;12.190;2022-12-13T06:50:58;24.73;;;13.27;;
23676;SDS011;31493;49.058;12.190;2022-12-13T06:53:26;25.83;;;12.85;;
23676;SDS011;31493;49.058;12.190;2022-12-13T06:55:53;25.75;;;13.43;;
23676;SDS011;31493;49.058;12.190;2022-12-13T06:58:20;35.88;;;17.88;;
23676;SDS011;31493;49.058;12.190;2022-12-13T07:00:48;46.35;;;20.55;;
23676;SDS011;31493;49.058;12.190;2022-12-13T07:03:15;26.98;;;13.32;;
23676;SDS011;31493;49.058;12.190;2022-12-13T07:05:42;24.17;;;12.55;;
23676;SDS011;31493;49.058;12.190;2022-12-13T07:08:09;28.20;;;14.27;;
23676;SDS011;31493;49.058;12.190;2022-12-13T07:10:37;28.70;;;15.27;;
23676;SDS011;31493;49.058;12.190;2022-12-13T07:15:32;40.88;;;18.42;;
23676;SDS011;31493;49.058;12.190;2022-12-13T07:18:00;44.60;;;17.27;;
23676;SDS011;31493;49.058;12.190;2022-12-13T07:20:27;30.33;;;15.68;;
23676;SDS011;31493;49.058;12.190;2022-12-13T07:22:54;29.33;;;14.40;;
23676;SDS011;31493;49.058;12.190;2022-12-13T07:25:21;27.40;;;13.50;;
23676;SDS011;31493;49.058;12.190;2022-12-13T07:27:54;25.65;;;12.18;;
23676;SDS011;31493;49.058;12.190;2022-12-13T07:30:21;26.88;;;12.85;;
23676;SDS011;31493;49.058;12.190;2022-12-13T07:32:48;29.80;;;13.77;;
23676;SDS011;31493;49.058;12.190;2022-12-13T07:35:16;29.05;;;13.35;;
23676;SDS011;31493;49.058;12.190;2022-12-13T07:37:44;26.80;;;12.00;;
23676;SDS011;31493;49.058;12.190;2022-12-13T07:40:11;31.40;;;13.25;;
23676;SDS011;31493;49.058;12.190;2022-12-13T07:42:38;22.33;;;11.65;;
23676;SDS011;31493;49.058;12.190;2022-12-13T07:45:05;22.13;;;11.20;;
23676;SDS011;31493;49.058;12.190;2022-12-13T07:47:33;18.58;;;9.32;;
23676;SDS011;31493;49.058;12.190;2022-12-13T07:50:00;25.02;;;12.57;;
23676;SDS011;31493;49.058;12.190;2022-12-13T07:52:28;25.15;;;12.10;;
23676;SDS011;31493;49.058;12.190;2022-12-13T07:54:55;27.33;;;12.65;;
23676;SDS011;31493;49.058;12.190;2022-12-13T07:57:22;29.23;;;14.25;;
23676;SDS011;31493;49.058;12.190;2022-12-13T07:59:49;32.97;;;14.05;;
23676;SDS011;31493;49.058;12.190;2022-12-13T08:02:16;27.60;;;13.85;;
23676;SDS011;31493;49.058;12.190;2022-12-13T08:04:43;36.58;;;18.27;;
23676;SDS011;31493;49.058;12.190;2022-12-13T08:07:10;41.83;;;21.52;;
23676;SDS011;31493;49.058;12.190;2022-12-13T08:09:38;36.95;;;16.58;;
23676;SDS011;31493;49.058;12.190;2022-12-13T08:12:05;30.45;;;14.13;;
23676;SDS011;31493;49.058;12.190;2022-12-13T08:14:33;29.45;;;13.43;;
23676;SDS011;31493;49.058;12.190;2022-12-13T08:17:00;24.80;;;12.07;;
23676;SDS011;31493;49.058;12.190;2022-12-13T08:19:27;24.13;;;12.45;;
23676;SDS011;31493;49.058;12.190;2022-12-13T08:21:54;25.55;;;11.88;;
23676;SDS011;31493;49.058;12.190;2022-12-13T08:24:21;25.05;;;12.57;;
23676;SDS011;31493;49.058;12.190;2022-12-13T08:26:50;21.95;;;11.70;;
23676;SDS011;31493;49.058;12.190;2022-12-13T08:31:44;24.45;;;12.93;;
23676;SDS011;31493;49.058;12.190;2022-12-13T08:34:11;29.63;;;13.55;;
23676;SDS011;31493;49.058;12.190;2022-12-13T08:36:38;27.13;;;12.75;;
23676;SDS011;31493;49.058;12.190;2022-12-13T08:39:05;31.58;;;14.45;;
23676;SDS011;31493;49.058;12.190;2022-12-13T08:41:33;22.70;;;10.73;;
23676;SDS011;31493;49.058;12.190;2022-12-13T08:44:01;26.83;;;13.25;;
23676;SDS011;31493;49.058;12.190;2022-12-13T08:46:28;27.23;;;13.50;;
23676;SDS011;31493;49.058;12.190;2022-12-13T08:48:55;42.60;;;20.50;;
23676;SDS011;31493;49.058;12.190;2022-12-13T08:51:22;25.92;;;13.73;;
23676;SDS011;31493;49.058;12.190;2022-12-13T08:53:50;32.70;;;14.10;;
23676;SDS011;31493;49.058;12.190;2022-12-13T08:56:17;35.90;;;18.40;;
23676;SDS011;31493;49.058;12.190;2022-12-13T08:58:47;24.65;;;13.38;;
23676;SDS011;31493;49.058;12.190;2022-12-13T09:01:17;36.20;;;18.35;;
23676;SDS011;31493;49.058;12.190;2022-12-13T09:03:44;29.52;;;15.55;;
23676;SDS011;31493;49.058;12.190;2022-12-13T09:06:12;26.25;;;13.00;;
23676;SDS011;31493;49.058;12.190;2022-12-13T09:08:43;30.42;;;15.60;;
23676;SDS011;31493;49.058;12.190;2022-12-13T09:11:10;25.17;;;11.93;;
23676;SDS011;31493;49.058;12.190;2022-12-13T09:13:38;26.88;;;12.40;;
23676;SDS011;31493;49.058;12.190;2022-12-13T09:16:06;24.63;;;12.60;;
23676;SDS011;31493;49.058;12.190;2022-12-13T09:18:36;29.27;;;14.55;;
23676;SDS011;31493;49.058;12.190;2022-12-13T09:21:06;26.30;;;13.48;;
23676;SDS011;31493;49.058;12.190;2022-12-13T09:23:34;29.17;;;12.75;;
23676;SDS011;31493;49.058;12.190;2022-12-13T09:26:01;28.55;;;12.52;;
23676;SDS011;31493;49.058;12.190;2022-12-13T09:28:28;66.43;;;29.98;;
23676;SDS011;31493;49.058;12.190;2022-12-13T09:30:56;28.08;;;14.05;;
23676;SDS011;31493;49.058;12.190;2022-12-13T09:33:23;30.13;;;14.45;;
23676;SDS011;31493;49.058;12.190;2022-12-13T09:35:51;31.90;;;15.48;;
23676;SDS011;31493;49.058;12.190;2022-12-13T09:38:19;31.17;;;16.17;;
23676;SDS011;31493;49.058;12.190;2022-12-13T09:40:46;37.10;;;16.90;;
23676;SDS011;31493;49.058;12.190;2022-12-13T09:43:18;41.28;;;17.95;;
23676;SDS011;31493;49.058;12.190;2022-12-13T09:45:50;45.33;;;21.77;;
23676;SDS011;31493;49.058;12.190;2022-12-13T09:48:19;33.27;;;16.33;;
23676;SDS011;31493;49.058;12.190;2022-12-13T09:50:48;26.60;;;13.60;;
23676;SDS011;31493;49.058;12.190;2022-12-13T09:55:46;28.20;;;13.75;;
23676;SDS011;31493;49.058;12.190;2022-12-13T09:58:16;23.73;;;12.35;;
23676;SDS011;31493;49.058;12.190;2022-12-13T10:00:46;24.50;;;11.63;;
23676;SDS011;31493;49.058;12.190;2022-12-13T10:03:15;27.48;;;14.73;;
23676;SDS011;31493;49.058;12.190;2022-12-13T10:05:44;24.38;;;12.93;;
23676;SDS011;31493;49.058;12.190;2022-12-13T10:08:19;24.48;;;12.95;;
23676;SDS011;31493;49.058;12.190;2022-12-13T10:10:50;24.42;;;12.23;;
23676;SDS011;31493;49.058;12.190;2022-12-13T10:13:19;20.00;;;12.07;;
23676;SDS011;31493;49.058;12.190;2022-12-13T10:15:50;26.15;;;13.98;;
23676;SDS011;31493;49.058;12.190;2022-12-13T10:18:24;25.88;;;13.55;;
23676;SDS011;31493;49.058;12.190;2022-12-13T10:20:57;24.05;;;12.52;;
23676;SDS011;31493;49.058;12.190;2022-12-13T10:23:25;33.20;;;18.05;;
23676;SDS011;31493;49.058;12.190;2022-12-13T10:25:53;27.52;;;13.02;;
23676;SDS011;31493;49.058;12.190;2022-12-13T10:28:23;24.60;;;12.90;;
23676;SDS011;31493;49.058;12.190;2022-12-13T10:30:53;27.15;;;14.00;;
23676;SDS011;31493;49.058;12.190;2022-12-13T10:33:23;27.90;;;13.90;;
23676;SDS011;31493;49.058;12.190;2022-12-13T10:36:02;25.00;;;13.43;;
23676;SDS011;31493;49.058;12.190;2022-12-13T10:38:34;29.95;;;14.50;;
23676;SDS011;31493;49.058;12.190;2022-12-13T10:41:03;24.08;;;13.25;;
23676;SDS011;31493;49.058;12.190;2022-12-13T10:44:05;27.27;;;13.20;;
23676;SDS011;31493;49.058;12.190;2022-12-13T10:46:35;24.60;;;12.20;;
23676;SDS011;31493;49.058;12.190;2022-12-13T10:49:02;26.58;;;12.00;;
23676;SDS011;31493;49.058;12.190;2022-12-13T10:51:35;29.98;;;13.75;;
23676;SDS011;31493;49.058;12.190;2022-12-13T10:54:10;23.45;;;12.05;;
23676;SDS011;31493;49.058;12.190;2022-12-13T10:56:44;23.67;;;11.82;;
23676;SDS011;31493;49.058;12.190;2022-12-13T10:59:22;23.85;;;11.75;;
23676;SDS011;31493;49.058;12.190;2022-12-13T11:01:52;22.83;;;11.52;;
23676;SDS011;31493;49.058;12.190;2022-12-13T11:04:20;22.20;;;10.65;;
23676;SDS011;31493;49.058;12.190;2022-12-13T11:06:52;20.08;;;10.13;;
23676;SDS011;31493;49.058;12.190;2022-12-13T11:09:27;21.35;;;10.65;;
23676;SDS011;31493;49.058;12.190;2022-12-13T11:11:56;20.45;;;11.75;;
23676;SDS011;31493;49.058;12.190;2022-12-13T11:14:27;23.23;;;10.88;;
23676;SDS011;31493;49.058;12.190;2022-12-13T11:16:58;22.88;;;11.05;;
23676;SDS011;31493;49.058;12.190;2022-12-13T11:19:32;19.70;;;11.10;;
23676;SDS011;31493;49.058;12.190;2022-12-13T11:22:04;21.42;;;11.85;;
23676;SDS011;31493;49.058;12.190;2022-12-13T11:24:36;20.02;;;11.18;;
23676;SDS011;31493;49.058;12.190;2022-12-13T11:30:10;22.40;;;11.38;;
23676;SDS011;31493;49.058;12.190;2022-12-13T11:32:45;19.48;;;10.55;;
23676;SDS011;31493;49.058;12.190;2022-12-13T11:35:28;20.88;;;10.93;;
23676;SDS011;31493;49.058;12.190;2022-12-13T11:38:02;20.50;;;10.57;;
23676;SDS011;31493;49.058;12.190;2022-12-13T11:40:43;23.65;;;11.60;;
23676;SDS011;31493;49.058;12.190;2022-12-13T11:43:14;21.17;;;11.43;;
23676;SDS011;31493;49.058;12.190;2022-12-13T11:45:50;19.30;;;10.65;;
23676;SDS011;31493;49.058;12.190;2022-12-13T11:48:22;23.08;;;11.35;;
23676;SDS011;31493;49.058;12.190;2022-12-13T11:50:58;21.65;;;11.50;;
23676;SDS011;31493;49.058;12.190;2022-12-13T11:53:27;23.15;;;8.93;;
23676;SDS011;31493;49.058;12.190;2022-12-13T11:55:58;28.10;;;12.23;;
23676;SDS011;31493;49.058;12.190;2022-12-13T11:58:33;22.38;;;11.93;;
23676;SDS011;31493;49.058;12.190;2022-12-13T12:01:07;23.02;;;11.88;;
23676;SDS011;31493;49.058;12.190;2022-12-13T12:03:39;24.02;;;12.35;;
23676;SDS011;31493;49.058;12.190;2022-12-13T12:06:11;24.40;;;12.10;;
23676;SDS011;31493;49.058;12.190;2022-12-13T12:08:41;26.95;;;14.27;;
23676;SDS011;31493;49.058;12.190;2022-12-13T12:11:15;23.65;;;12.40;;
23676;SDS011;31493;49.058;12.190;2022-12-13T12:13:48;21.55;;;10.77;;
23676;SDS011;31493;49.058;12.190;2022-12-13T12:16:27;18.10;;;10.30;;
23676;SDS011;31493;49.058;12.190;2022-12-13T12:19:00;20.23;;;10.15;;
23676;SDS011;31493;49.058;12.190;2022-12-13T12:21:30;15.77;;;9.23;;
23676;SDS011;31493;49.058;12.190;2022-12-13T12:24:07;18.92;;;8.63;;
23676;SDS011;31493;49.058;12.190;2022-12-13T12:26:46;12.98;;;7.35;;
23676;SDS011;31493;49.058;12.190;2022-12-13T12:29:47;15.00;;;7.53;;
23676;SDS011;31493;49.058;12.190;2022-12-13T12:32:31;13.43;;;7.35;;
23676;SDS011;31493;49.058;12.190;2022-12-13T12:38:12;17.45;;;8.45;;
23676;SDS011;31493;49.058;12.190;2022-12-13T12:40:54;34.15;;;12.25;;
23676;SDS011;31493;49.058;12.190;2022-12-13T12:43:42;16.38;;;8.68;;
23676;SDS011;31493;49.058;12.190;2022-12-13T12:46:15;17.10;;;9.88;;
23676;SDS011;31493;49.058;12.190;2022-12-13T12:49:04;17.42;;;9.02;;
23676;SDS011;31493;49.058;12.190;2022-12-13T12:51:49;17.55;;;8.73;;
23676;SDS011;31493;49.058;12.190;2022-12-13T12:54:26;17.90;;;8.90;;
23676;SDS011;31493;49.058;12.190;2022-12-13T12:57:08;21.90;;;11.30;;
23676;SDS011;31493;49.058;12.190;2022-12-13T12:59:49;15.70;;;8.57;;
23676;SDS011;31493;49.058;12.190;2022-12-13T13:02:26;14.07;;;7.88;;
23676;SDS011;31493;49.058;12.190;2022-12-13T13:05:01;17.02;;;8.65;;
23676;SDS011;31493;49.058;12.190;2022-12-13T13:07:35;19.33;;;8.73;;
23676;SDS011;31493;49.058;12.190;2022-12-13T13:10:06;16.10;;;9.35;;
23676;SDS011;31493;49.058;12.190;2022-12-13T13:18:07;16.92;;;8.13;;
23676;SDS011;31493;49.058;12.190;2022-12-13T13:21:25;17.30;;;7.93;;
23676;SDS011;31493;49.058;12.190;2022-12-13T13:24:12;16.98;;;8.82;;
23676;SDS011;31493;49.058;12.190;2022-12-13T13:26:41;12.48;;;7.07;;
23676;SDS011;31493;49.058;12.190;2022-12-13T13:29:20;20.77;;;11.70;;
23676;SDS011;31493;49.058;12.190;2022-12-13T13:31:54;12.97;;;7.33;;
23676;SDS011;31493;49.058;12.190;2022-12-13T13:34:24;13.60;;;8.23;;
23676;SDS011;31493;49.058;12.190;2022-12-13T13:36:53;15.35;;;8.05;;
23676;SDS011;31493;49.058;12.190;2022-12-13T13:39:35;9.60;;;5.88;;
23676;SDS011;31493;49.058;12.190;2022-12-13T13:42:19;13.38;;;7.95;;
23676;SDS011;31493;49.058;12.190;2022-12-13T13:47:53;21.48;;;10.50;;
23676;SDS011;31493;49.058;12.190;2022-12-13T13:56:59;15.13;;;7.75;;
23676;SDS011;31493;49.058;12.190;2022-12-13T14:00:04;20.77;;;13.15;;
23676;SDS011;31493;49.058;12.190;2022-12-13T14:02:49;12.35;;;7.43;;
23676;SDS011;31493;49.058;12.190;2022-12-13T14:12:00;16.48;;;8.48;;
23676;SDS011;31493;49.058;12.190;2022-12-13T14:20:56;14.70;;;7.40;;
23676;SDS011;31493;49.058;12.190;2022-12-13T14:23:46;15.50;;;7.18;;
23676;SDS011;31493;49.058;12.190;2022-12-13T14:26:26;14.80;;;8.75;;
23676;SDS011;31493;49.058;12.190;2022-12-13T14:29:10;10.75;;;6.32;;
23676;SDS011;31493;49.058;12.190;2022-12-13T14:31:42;13.52;;;7.88;;
23676;SDS011;31493;49.058;12.190;2022-12-13T14:34:16;13.10;;;8.15;;
23676;SDS011;31493;49.058;12.190;2022-12-13T14:36:54;14.50;;;8.35;;
23676;SDS011;31493;49.058;12.190;2022-12-13T14:39:23;16.15;;;8.52;;
23676;SDS011;31493;49.058;12.190;2022-12-13T14:41:51;14.48;;;7.88;;
23676;SDS011;31493;49.058;12.190;2022-12-13T14:44:22;13.00;;;8.43;;
23676;SDS011;31493;49.058;12.190;2022-12-13T14:46:51;15.10;;;8.23;;
23676;SDS011;31493;49.058;12.190;2022-12-13T14:49:20;18.25;;;8.70;;
23676;SDS011;31493;49.058;12.190;2022-12-13T14:51:49;19.55;;;11.57;;
23676;SDS011;31493;49.058;12.190;2022-12-13T14:54:26;20.65;;;11.40;;
23676;SDS011;31493;49.058;12.190;2022-12-13T14:56:57;22.30;;;11.13;;
23676;SDS011;31493;49.058;12.190;2022-12-13T14:59:27;23.17;;;11.43;;
23676;SDS011;31493;49.058;12.190;2022-12-13T15:01:56;22.30;;;12.77;;
23676;SDS011;31493;49.058;12.190;2022-12-13T15:04:26;28.33;;;14.98;;
23676;SDS011;31493;49.058;12.190;2022-12-13T15:06:57;23.08;;;12.73;;
23676;SDS011;31493;49.058;12.190;2022-12-13T15:09:27;21.33;;;10.68;;
23676;SDS011;31493;49.058;12.190;2022-12-13T15:11:54;20.02;;;11.27;;
23676;SDS011;31493;49.058;12.190;2022-12-13T15:14:24;18.40;;;9.90;;
23676;SDS011;31493;49.058;12.190;2022-12-13T15:16:53;28.73;;;15.10;;
23676;SDS011;31493;49.058;12.190;2022-12-13T15:19:23;26.70;;;13.43;;
23676;SDS011;31493;49.058;12.190;2022-12-13T15:21:52;20.85;;;9.70;;
23676;SDS011;31493;49.058;12.190;2022-12-13T15:29:16;30.77;;;15.23;;
23676;SDS011;31493;49.058;12.190;2022-12-13T15:31:46;34.60;;;15.60;;
23676;SDS011;31493;49.058;12.190;2022-12-13T15:34:22;31.83;;;17.20;;